createdAt,value
2018-01-30T00:01:14.360Z,9.90
2018-01-30T00:03:41.796Z,10.00
2018-01-30T00:06:09.220Z,10.00
2018-01-30T00:08:36.660Z,9.90
2018-01-30T00:11:04.081Z,9.90
2018-01-30T00:13:32.264Z,9.90
2018-01-30T00:15:59.692Z,9.90
2018-01-30T00:18:27.152Z,9.80
2018-01-30T00:20:54.679Z,9.90
2018-01-30T00:23:22.099Z,9.80
2018-01-30T00:25:49.528Z,9.80
2018-01-30T00:28:16.943Z,9.80
2018-01-30T00:30:44.472Z,9.80
2018-01-30T00:33:11.895Z,9.80
2018-01-30T00:35:39.320Z,9.80
2018-01-30T00:38:06.744Z,9.80
2018-01-30T00:40:34.167Z,9.70
2018-01-30T00:43:01.584Z,9.70
2018-01-30T00:45:29.012Z,9.70
2018-01-30T00:47:56.439Z,9.60
2018-01-30T00:50:23.863Z,9.60
2018-01-30T00:52:51.371Z,9.60
2018-01-30T00:55:18.800Z,9.50
2018-01-30T00:57:46.215Z,9.50
2018-01-30T01:00:13.644Z,9.40
2018-01-30T01:02:41.059Z,9.30
2018-01-30T01:05:08.488Z,9.30
2018-01-30T01:07:35.911Z,9.20
2018-01-30T01:10:03.336Z,9.20
2018-01-30T01:12:31.526Z,9.20
2018-01-30T01:14:58.947Z,9.20
2018-01-30T01:17:26.363Z,9.20
2018-01-30T01:19:53.799Z,9.10
2018-01-30T01:22:21.220Z,9.10
2018-01-30T01:24:48.723Z,9.20
2018-01-30T01:27:16.139Z,9.20
2018-01-30T01:29:43.636Z,9.20
2018-01-30T01:32:11.048Z,9.20
2018-01-30T01:34:38.670Z,9.20
2018-01-30T01:37:06.088Z,9.30
2018-01-30T01:39:33.534Z,9.20
2018-01-30T01:42:00.956Z,9.20
2018-01-30T01:44:28.375Z,9.20
2018-01-30T01:46:55.798Z,9.20
2018-01-30T01:49:31.791Z,9.20
2018-01-30T01:51:59.464Z,9.10
2018-01-30T01:54:26.879Z,9.10
2018-01-30T01:56:54.307Z,9.10
2018-01-30T01:59:21.725Z,9.00
2018-01-30T02:01:49.208Z,9.00
2018-01-30T02:04:16.614Z,8.80
2018-01-30T02:06:44.044Z,8.80
2018-01-30T02:09:11.468Z,8.80
2018-01-30T02:11:38.886Z,8.80
2018-01-30T02:14:06.577Z,8.80
2018-01-30T02:16:34.008Z,8.70
2018-01-30T02:19:01.415Z,8.70
2018-01-30T02:21:28.847Z,8.70
2018-01-30T02:23:56.275Z,8.70
2018-01-30T02:26:23.703Z,8.60
2018-01-30T02:28:51.884Z,8.60
2018-01-30T02:31:19.314Z,8.50
2018-01-30T02:33:46.735Z,8.60
2018-01-30T02:36:14.158Z,8.60
2018-01-30T02:38:42.339Z,8.60
2018-01-30T02:41:09.767Z,8.60
2018-01-30T02:43:37.183Z,8.60
2018-01-30T02:46:04.627Z,8.60
2018-01-30T02:48:32.044Z,8.50
2018-01-30T02:51:00.235Z,8.50
2018-01-30T02:53:27.656Z,8.50
2018-01-30T02:55:55.097Z,8.40
2018-01-30T02:58:22.651Z,8.40
2018-01-30T03:00:50.077Z,8.40
2018-01-30T03:03:17.503Z,8.30
2018-01-30T03:05:44.920Z,8.30
2018-01-30T03:08:12.344Z,8.20
2018-01-30T03:10:39.755Z,8.10
2018-01-30T03:13:07.947Z,8.00
2018-01-30T03:15:35.367Z,8.00
2018-01-30T03:18:02.806Z,8.00
2018-01-30T03:20:30.224Z,8.00
2018-01-30T03:22:57.664Z,8.00
2018-01-30T03:25:26.061Z,7.90
2018-01-30T03:27:53.522Z,7.90
2018-01-30T03:30:20.940Z,7.90
2018-01-30T03:32:49.131Z,7.70
2018-01-30T03:35:16.623Z,7.70
2018-01-30T03:37:44.057Z,7.70
2018-01-30T03:40:11.471Z,7.70
2018-01-30T03:42:38.899Z,7.60
2018-01-30T03:45:06.320Z,7.50
2018-01-30T03:47:33.743Z,7.50
2018-01-30T03:50:01.159Z,7.40
2018-01-30T03:52:28.600Z,7.40
2018-01-30T03:54:56.015Z,7.30
2018-01-30T03:57:23.443Z,7.30
2018-01-30T03:59:50.863Z,7.20
2018-01-30T04:02:18.280Z,7.10
2018-01-30T04:04:45.720Z,7.10
2018-01-30T04:07:13.149Z,7.10
2018-01-30T04:09:40.584Z,7.00
2018-01-30T04:12:08.003Z,7.00
2018-01-30T04:14:36.211Z,6.80
2018-01-30T04:17:03.631Z,6.90
2018-01-30T04:19:31.060Z,6.80
2018-01-30T04:21:58.489Z,6.80
2018-01-30T04:24:25.919Z,6.70
2018-01-30T04:26:54.107Z,6.60
2018-01-30T04:29:21.544Z,6.50
2018-01-30T04:31:48.967Z,6.50
2018-01-30T04:34:16.419Z,6.50
2018-01-30T04:36:43.847Z,6.40
2018-01-30T04:39:11.280Z,6.40
2018-01-30T04:41:38.702Z,6.30
2018-01-30T04:44:06.135Z,6.30
2018-01-30T04:46:33.560Z,6.30
2018-01-30T04:49:00.995Z,6.30
2018-01-30T04:51:28.420Z,6.30
2018-01-30T04:53:55.867Z,6.20
2018-01-30T04:56:23.296Z,6.20
2018-01-30T04:58:50.719Z,6.20
2018-01-30T05:01:18.179Z,6.10
2018-01-30T05:03:45.599Z,6.10
2018-01-30T05:06:13.029Z,6.00
2018-01-30T05:08:40.451Z,5.90
2018-01-30T05:11:07.879Z,5.80
2018-01-30T05:13:36.066Z,5.70
2018-01-30T05:16:03.500Z,5.70
2018-01-30T05:18:30.915Z,5.70
2018-01-30T05:20:58.347Z,5.70
2018-01-30T05:23:25.774Z,5.70
2018-01-30T05:25:53.974Z,5.70
2018-01-30T05:28:21.396Z,5.70
2018-01-30T05:30:48.826Z,5.60
2018-01-30T05:33:16.247Z,5.60
2018-01-30T05:35:43.671Z,5.60
2018-01-30T05:38:11.864Z,5.50
2018-01-30T05:40:39.296Z,5.50
2018-01-30T05:43:06.719Z,5.50
2018-01-30T05:45:34.156Z,5.50
2018-01-30T05:48:01.576Z,5.50
2018-01-30T05:50:29.776Z,5.50
2018-01-30T05:52:57.199Z,5.50
2018-01-30T05:55:24.624Z,5.40
2018-01-30T05:57:52.068Z,5.40
2018-01-30T06:00:19.487Z,5.40
2018-01-30T06:02:46.915Z,5.20
2018-01-30T06:05:15.103Z,5.20
2018-01-30T06:07:42.540Z,5.20
2018-01-30T06:10:10.012Z,5.10
2018-01-30T06:12:37.439Z,5.00
2018-01-30T06:15:04.860Z,5.00
2018-01-30T06:17:32.291Z,5.00
2018-01-30T06:19:59.725Z,5.10
2018-01-30T06:22:27.335Z,5.10
2018-01-30T06:24:54.764Z,5.10
2018-01-30T06:27:22.188Z,5.10
2018-01-30T06:29:49.612Z,5.00
2018-01-30T06:32:17.054Z,4.90
2018-01-30T06:34:44.483Z,4.90
2018-01-30T06:37:11.916Z,4.80
2018-01-30T06:39:40.121Z,4.80
2018-01-30T06:42:07.540Z,4.80
2018-01-30T06:44:34.967Z,4.80
2018-01-30T06:47:02.396Z,4.90
2018-01-30T06:49:29.825Z,4.80
2018-01-30T06:51:58.016Z,4.80
2018-01-30T06:54:25.441Z,4.80
2018-01-30T06:56:52.888Z,4.70
2018-01-30T06:59:20.288Z,4.70
2018-01-30T07:01:47.721Z,4.70
2018-01-30T07:04:15.916Z,4.70
2018-01-30T07:06:43.344Z,4.70
2018-01-30T07:09:10.862Z,4.80
2018-01-30T07:11:38.275Z,4.70
2018-01-30T07:14:05.700Z,4.70
2018-01-30T07:16:33.134Z,4.70
2018-01-30T07:19:00.552Z,4.60
2018-01-30T07:21:28.004Z,4.60
2018-01-30T07:23:55.419Z,4.60
2018-01-30T07:26:22.860Z,4.60
2018-01-30T07:28:50.284Z,4.60
2018-01-30T07:31:17.710Z,4.70
2018-01-30T07:33:45.132Z,4.70
2018-01-30T07:36:12.560Z,4.70
2018-01-30T07:38:40.015Z,4.70
2018-01-30T07:41:07.447Z,4.70
2018-01-30T07:43:34.868Z,4.80
2018-01-30T07:46:02.333Z,4.80
2018-01-30T07:48:29.729Z,4.80
2018-01-30T07:50:57.161Z,4.90
2018-01-30T07:53:24.576Z,4.90
2018-01-30T07:55:52.024Z,5.00
2018-01-30T07:58:19.532Z,5.10
2018-01-30T08:00:46.963Z,5.10
2018-01-30T08:03:14.396Z,5.10
2018-01-30T08:05:42.036Z,5.20
2018-01-30T08:08:09.468Z,5.20
2018-01-30T08:10:36.888Z,5.30
2018-01-30T08:13:04.320Z,5.40
2018-01-30T08:15:31.743Z,5.40
2018-01-30T08:17:59.172Z,5.50
2018-01-30T08:20:26.595Z,5.50
2018-01-30T08:22:54.099Z,5.60
2018-01-30T08:25:21.528Z,5.70
2018-01-30T08:27:49.728Z,5.70
2018-01-30T08:30:17.823Z,5.70
2018-01-30T08:32:45.244Z,5.80
2018-01-30T08:35:12.676Z,5.90
2018-01-30T08:37:40.098Z,6.00
2018-01-30T08:40:07.535Z,6.00
2018-01-30T08:42:36.599Z,6.20
2018-01-30T08:45:04.028Z,6.20
2018-01-30T08:47:31.452Z,6.20
2018-01-30T08:49:58.920Z,6.30
2018-01-30T08:52:26.344Z,6.40
2018-01-30T08:54:54.021Z,6.40
2018-01-30T08:57:21.442Z,6.40
2018-01-30T08:59:48.863Z,6.50
2018-01-30T09:02:16.285Z,6.60
2018-01-30T09:04:43.711Z,6.70
2018-01-30T09:07:11.126Z,6.90
2018-01-30T09:09:38.556Z,7.00
2018-01-30T09:12:06.020Z,7.20
2018-01-30T09:14:33.444Z,7.30
2018-01-30T09:17:00.864Z,7.40
2018-01-30T09:19:28.292Z,7.50
2018-01-30T09:21:55.715Z,7.50
2018-01-30T09:24:23.144Z,7.50
2018-01-30T09:26:50.558Z,7.60
2018-01-30T09:29:17.991Z,7.70
2018-01-30T09:31:45.407Z,7.70
2018-01-30T09:34:12.828Z,7.70
2018-01-30T09:36:40.251Z,7.80
2018-01-30T09:39:07.666Z,7.80
2018-01-30T09:41:35.091Z,7.90
2018-01-30T09:44:02.515Z,7.90
2018-01-30T09:46:29.935Z,7.90
2018-01-30T09:48:57.586Z,8.00
2018-01-30T09:51:25.109Z,8.10
2018-01-30T09:53:52.523Z,8.30
2018-01-30T09:56:19.952Z,8.20
2018-01-30T09:58:47.372Z,8.40
2018-01-30T10:01:14.808Z,8.50
2018-01-30T10:03:42.260Z,8.50
2018-01-30T10:06:09.755Z,8.60
2018-01-30T10:08:37.175Z,8.70
2018-01-30T10:11:04.600Z,8.60
2018-01-30T10:13:32.032Z,8.70
2018-01-30T10:15:59.543Z,8.80
2018-01-30T10:18:26.964Z,9.10
2018-01-30T10:20:54.394Z,9.30
2018-01-30T10:23:21.820Z,9.50
2018-01-30T10:25:49.240Z,9.70
2018-01-30T10:28:16.668Z,9.70
2018-01-30T10:30:44.094Z,9.60
2018-01-30T10:33:11.524Z,9.60
2018-01-30T10:35:38.943Z,9.60
2018-01-30T10:38:06.372Z,9.60
2018-01-30T10:40:33.788Z,9.50
2018-01-30T10:43:01.989Z,9.50
2018-01-30T10:45:29.400Z,9.50
2018-01-30T10:47:57.075Z,9.50
2018-01-30T10:50:25.295Z,9.70
2018-01-30T10:52:52.743Z,9.70
2018-01-30T10:55:20.205Z,9.70
2018-01-30T10:57:47.631Z,9.90
2018-01-30T11:00:15.052Z,9.90
2018-01-30T11:02:42.524Z,10.00
2018-01-30T11:05:09.904Z,10.20
2018-01-30T11:07:37.334Z,10.40
2018-01-30T11:10:05.558Z,10.70
2018-01-30T11:12:32.979Z,10.70
2018-01-30T11:15:00.415Z,10.80
2018-01-30T11:17:28.711Z,10.90
2018-01-30T11:19:56.135Z,10.80
2018-01-30T11:22:23.624Z,11.00
2018-01-30T11:24:51.056Z,11.00
2018-01-30T11:27:19.249Z,11.20
2018-01-30T11:29:46.674Z,11.20
2018-01-30T11:32:14.099Z,11.20
2018-01-30T11:34:41.560Z,11.30
2018-01-30T11:37:08.984Z,11.40
2018-01-30T11:39:36.407Z,11.50
2018-01-30T11:42:03.836Z,11.70
2018-01-30T11:44:31.268Z,11.80
2018-01-30T11:46:58.808Z,11.90
2018-01-30T11:49:26.236Z,12.10
2018-01-30T11:51:54.431Z,12.20
2018-01-30T11:54:21.920Z,12.20
2018-01-30T11:56:49.347Z,12.10
2018-01-30T11:59:16.764Z,12.10
2018-01-30T12:01:44.190Z,12.30
2018-01-30T12:04:11.611Z,12.10
2018-01-30T12:06:39.111Z,12.10
2018-01-30T12:09:06.655Z,11.90
2018-01-30T12:11:34.091Z,11.70
2018-01-30T12:14:01.511Z,11.60
2018-01-30T12:16:28.943Z,11.60
2018-01-30T12:18:56.363Z,11.60
2018-01-30T12:21:23.843Z,11.70
2018-01-30T12:23:51.267Z,11.60
2018-01-30T12:26:18.703Z,11.80
2018-01-30T12:28:46.895Z,11.70
2018-01-30T12:31:14.375Z,11.70
2018-01-30T12:33:41.807Z,11.60
2018-01-30T12:36:09.223Z,11.50
2018-01-30T12:38:36.912Z,11.40
2018-01-30T12:41:04.311Z,11.40
2018-01-30T12:43:31.740Z,11.30
2018-01-30T12:45:59.411Z,11.40
2018-01-30T12:48:26.843Z,11.50
2018-01-30T12:50:54.267Z,11.50
2018-01-30T12:53:21.757Z,11.40
2018-01-30T12:55:49.164Z,11.50
2018-01-30T12:58:16.696Z,11.60
2018-01-30T13:00:44.111Z,11.60
2018-01-30T13:03:11.539Z,11.70
2018-01-30T13:05:38.972Z,11.60
2018-01-30T13:08:06.468Z,11.50
2018-01-30T13:10:33.879Z,11.60
2018-01-30T13:13:02.327Z,11.80
2018-01-30T13:15:29.930Z,12.00
2018-01-30T13:17:57.307Z,12.40
2018-01-30T13:20:24.736Z,12.70
2018-01-30T13:22:52.151Z,12.90
2018-01-30T13:25:19.582Z,13.00
2018-01-30T13:27:47.007Z,13.10
2018-01-30T13:30:14.496Z,13.60
2018-01-30T13:32:41.969Z,13.80
2018-01-30T13:35:09.075Z,13.70
2018-01-30T13:37:36.532Z,13.90
2018-01-30T13:40:03.972Z,14.00
2018-01-30T13:42:31.392Z,14.30
2018-01-30T13:44:59.881Z,14.20
2018-01-30T13:47:27.347Z,14.20
2018-01-30T13:49:54.779Z,13.80
2018-01-30T13:52:22.204Z,13.80
2018-01-30T13:54:49.632Z,13.60
2018-01-30T13:57:17.051Z,13.50
2018-01-30T13:59:44.634Z,13.40
2018-01-30T14:02:12.188Z,13.40
2018-01-30T14:04:39.603Z,13.70
2018-01-30T14:07:07.035Z,13.50
2018-01-30T14:09:34.528Z,13.40
2018-01-30T14:12:01.975Z,13.20
2018-01-30T14:14:29.405Z,13.00
2018-01-30T14:16:56.828Z,12.90
2018-01-30T14:19:24.248Z,12.80
2018-01-30T14:21:51.671Z,12.70
2018-01-30T14:24:19.200Z,12.60
2018-01-30T14:26:46.631Z,12.40
2018-01-30T14:29:14.042Z,12.30
2018-01-30T14:31:41.471Z,12.30
2018-01-30T14:34:08.905Z,12.40
2018-01-30T14:36:36.339Z,12.40
2018-01-30T14:39:04.523Z,12.20
2018-01-30T14:41:31.952Z,12.20
2018-01-30T14:43:59.362Z,12.10
2018-01-30T14:46:26.813Z,12.00
2018-01-30T14:48:54.308Z,11.90
2018-01-30T14:51:21.839Z,11.80
2018-01-30T14:53:49.255Z,11.70
2018-01-30T14:56:16.681Z,11.70
2018-01-30T14:58:44.883Z,11.50
2018-01-30T15:01:12.294Z,11.50
2018-01-30T15:03:39.736Z,11.40
2018-01-30T15:06:07.191Z,11.30
2018-01-30T15:08:34.627Z,11.20
2018-01-30T15:11:02.044Z,11.10
2018-01-30T15:13:29.479Z,11.00
2018-01-30T15:15:56.904Z,10.90
2018-01-30T15:18:24.347Z,10.90
2018-01-30T15:20:51.879Z,10.80
2018-01-30T15:23:19.316Z,10.80
2018-01-30T15:25:46.839Z,10.70
2018-01-30T15:28:14.280Z,10.70
2018-01-30T15:30:41.700Z,10.60
2018-01-30T15:33:09.123Z,10.60
2018-01-30T15:35:36.557Z,10.50
2018-01-30T15:38:03.983Z,10.50
2018-01-30T15:40:32.216Z,10.40
2018-01-30T15:42:59.635Z,10.40
2018-01-30T15:45:27.072Z,10.40
2018-01-30T15:47:54.491Z,10.30
2018-01-30T15:50:21.923Z,10.30
2018-01-30T15:52:49.402Z,10.20
2018-01-30T15:55:16.827Z,10.10
2018-01-30T15:57:44.255Z,10.10
2018-01-30T16:00:11.808Z,10.00
2018-01-30T16:02:39.227Z,9.90
2018-01-30T16:05:06.656Z,9.90
2018-01-30T16:07:34.151Z,9.90
2018-01-30T16:10:01.572Z,9.80
2018-01-30T16:12:28.986Z,9.80
2018-01-30T16:14:56.411Z,9.70
2018-01-30T16:17:23.831Z,9.70
2018-01-30T16:19:51.261Z,9.70
2018-01-30T16:22:18.729Z,9.60
2018-01-30T16:24:46.101Z,9.60
2018-01-30T16:27:13.532Z,9.60
2018-01-30T16:29:40.964Z,9.60
2018-01-30T16:32:08.487Z,9.50
2018-01-30T16:34:35.920Z,9.40
2018-01-30T16:37:03.343Z,9.30
2018-01-30T16:39:30.755Z,9.40
2018-01-30T16:41:58.183Z,9.40
2018-01-30T16:44:25.611Z,9.40
2018-01-30T16:46:53.112Z,9.40
2018-01-30T16:49:20.527Z,9.30
2018-01-30T16:51:47.951Z,9.30
2018-01-30T16:54:15.372Z,9.30
2018-01-30T16:56:42.805Z,9.30
2018-01-30T16:59:10.224Z,9.30
2018-01-30T17:01:37.658Z,9.30
2018-01-30T17:04:05.096Z,9.20
2018-01-30T17:06:32.512Z,9.20
2018-01-30T17:08:59.928Z,9.20
2018-01-30T17:11:28.124Z,9.20
2018-01-30T17:13:55.552Z,9.10
2018-01-30T17:16:23.292Z,9.10
2018-01-30T17:18:50.716Z,9.10
2018-01-30T17:21:18.150Z,9.10
2018-01-30T17:23:45.564Z,9.10
2018-01-30T17:26:12.999Z,9.10
2018-01-30T17:28:40.480Z,9.00
2018-01-30T17:31:07.907Z,9.00
2018-01-30T17:33:35.480Z,9.00
2018-01-30T17:36:02.903Z,9.00
2018-01-30T17:38:30.334Z,9.00
2018-01-30T17:40:58.520Z,9.00
2018-01-30T17:43:25.948Z,9.00
2018-01-30T17:45:53.373Z,9.00
2018-01-30T17:48:20.795Z,8.90
2018-01-30T17:50:48.220Z,8.90
2018-01-30T17:53:15.646Z,8.90
2018-01-30T17:55:43.103Z,8.90
2018-01-30T17:58:10.550Z,8.90
2018-01-30T18:00:38.047Z,8.90
2018-01-30T18:03:05.487Z,8.90
2018-01-30T18:05:32.899Z,8.90
2018-01-30T18:08:00.392Z,8.90
2018-01-30T18:10:27.843Z,8.90
2018-01-30T18:12:55.272Z,8.90
2018-01-30T18:15:22.694Z,8.90
2018-01-30T18:17:50.123Z,8.90
2018-01-30T18:20:17.548Z,8.90
2018-01-30T18:22:45.088Z,8.80
2018-01-30T18:25:13.276Z,8.80
2018-01-30T18:27:40.751Z,8.80
2018-01-30T18:30:08.206Z,8.80
2018-01-30T18:32:35.648Z,8.80
2018-01-30T18:35:03.067Z,8.80
2018-01-30T18:37:30.480Z,8.80
2018-01-30T18:39:57.916Z,8.80
2018-01-30T18:42:25.328Z,8.80
2018-01-30T18:44:53.532Z,8.80
2018-01-30T18:47:20.947Z,8.80
2018-01-30T18:49:48.371Z,8.80
2018-01-30T18:52:15.788Z,8.80
2018-01-30T18:54:43.987Z,8.80
2018-01-30T18:57:11.414Z,8.70
2018-01-30T18:59:38.849Z,8.80
2018-01-30T19:02:06.267Z,8.80
2018-01-30T19:04:34.455Z,8.70
2018-01-30T19:07:01.880Z,8.70
2018-01-30T19:09:29.301Z,8.80
2018-01-30T19:11:56.724Z,8.70
2018-01-30T19:14:24.156Z,8.70
2018-01-30T19:16:51.596Z,8.70
2018-01-30T19:19:19.010Z,8.60
2018-01-30T19:21:46.477Z,8.60
2018-01-30T19:24:14.659Z,8.60
2018-01-30T19:26:42.091Z,8.50
2018-01-30T19:29:09.515Z,8.50
2018-01-30T19:31:36.947Z,8.50
2018-01-30T19:34:04.372Z,8.40
2018-01-30T19:36:32.576Z,8.40
2018-01-30T19:38:59.996Z,8.40
2018-01-30T19:41:28.240Z,8.40
2018-01-30T19:43:55.667Z,8.40
2018-01-30T19:46:23.289Z,8.40
2018-01-30T19:48:50.711Z,8.40
2018-01-30T19:51:18.167Z,8.40
2018-01-30T19:53:45.737Z,8.40
2018-01-30T19:56:13.144Z,8.40
2018-01-30T19:58:40.579Z,8.40
2018-01-30T20:01:08.004Z,8.30
2018-01-30T20:03:35.443Z,8.30
2018-01-30T20:06:02.991Z,8.30
2018-01-30T20:08:30.428Z,8.30
2018-01-30T20:10:57.856Z,8.30
2018-01-30T20:13:25.393Z,8.20
2018-01-30T20:15:52.789Z,8.20
2018-01-30T20:18:20.223Z,8.20
2018-01-30T20:20:47.647Z,8.20
2018-01-30T20:23:15.083Z,8.20
2018-01-30T20:25:42.508Z,8.10
2018-01-30T20:28:09.950Z,8.10
2018-01-30T20:30:37.376Z,8.00
2018-01-30T20:33:04.801Z,8.00
2018-01-30T20:35:32.348Z,7.90
2018-01-30T20:37:59.771Z,7.90
2018-01-30T20:40:27.971Z,7.90
2018-01-30T20:42:55.398Z,7.90
2018-01-30T20:45:22.827Z,7.90
2018-01-30T20:47:50.264Z,7.80
2018-01-30T20:50:17.696Z,7.90
2018-01-30T20:52:45.121Z,7.90
2018-01-30T20:55:13.321Z,7.90
2018-01-30T20:57:40.756Z,7.90
2018-01-30T21:00:08.259Z,7.90
2018-01-30T21:02:35.691Z,7.90
2018-01-30T21:05:03.115Z,7.90
2018-01-30T21:07:30.555Z,7.90
2018-01-30T21:09:57.992Z,7.90
2018-01-30T21:12:25.447Z,7.90
2018-01-30T21:14:52.881Z,7.90
2018-01-30T21:17:20.332Z,7.90
2018-01-30T21:19:47.763Z,7.90
2018-01-30T21:22:15.963Z,8.00
2018-01-30T21:24:43.388Z,8.00
2018-01-30T21:27:10.820Z,8.00
2018-01-30T21:29:39.012Z,8.00
2018-01-30T21:32:06.444Z,8.00
2018-01-30T21:34:33.868Z,8.10
2018-01-30T21:37:01.331Z,8.10
2018-01-30T21:39:28.764Z,8.10
2018-01-30T21:41:56.192Z,8.10
2018-01-30T21:44:23.623Z,8.10
2018-01-30T21:46:51.930Z,8.20
2018-01-30T21:49:20.125Z,8.20
2018-01-30T21:51:47.553Z,8.20
2018-01-30T21:54:18.430Z,8.20
2018-01-30T21:56:42.431Z,8.10
2018-01-30T21:59:09.855Z,8.10
2018-01-30T22:01:37.303Z,8.10
2018-01-30T22:04:04.723Z,8.10
2018-01-30T22:06:32.168Z,8.10
2018-01-30T22:08:59.621Z,8.10
2018-01-30T22:11:27.032Z,8.10
2018-01-30T22:13:54.456Z,8.10
2018-01-30T22:16:21.892Z,8.00
2018-01-30T22:18:49.312Z,8.00
2018-01-30T22:21:16.748Z,7.90
2018-01-30T22:23:44.171Z,7.90
2018-01-30T22:26:11.599Z,8.00
2018-01-30T22:28:39.133Z,8.00
2018-01-30T22:31:06.562Z,8.10
2018-01-30T22:33:33.979Z,8.10
2018-01-30T22:36:01.420Z,8.10
2018-01-30T22:38:28.843Z,8.20
2018-01-30T22:40:56.272Z,8.20
2018-01-30T22:43:24.459Z,8.30
2018-01-30T22:45:51.894Z,8.30
